createdAt,value
2022-09-04T00:01:40.065Z,16.60
2022-09-04T00:04:22.767Z,16.50
2022-09-04T00:07:03.173Z,16.50
2022-09-04T00:09:37.612Z,16.50
2022-09-04T00:12:08.028Z,16.50
2022-09-04T00:14:42.835Z,16.40
2022-09-04T00:17:16.149Z,16.10
2022-09-04T00:19:53.215Z,16.40
2022-09-04T00:22:28.994Z,16.30
2022-09-04T00:25:05.971Z,16.30
2022-09-04T00:27:43.632Z,16.30
2022-09-04T00:30:15.237Z,16.20
2022-09-04T00:32:49.315Z,16.20
2022-09-04T00:35:21.222Z,16.10
2022-09-04T00:37:53.202Z,16.10
2022-09-04T00:40:25.834Z,16.10
2022-09-04T00:43:25.835Z,16.10
2022-09-04T00:46:07.300Z,16.00
2022-09-04T00:49:02.183Z,16.00
2022-09-04T00:51:38.937Z,15.90
2022-09-04T00:54:27.400Z,16.10
2022-09-04T00:57:58.927Z,15.90
2022-09-04T01:00:27.224Z,15.80
2022-09-04T01:03:44.436Z,15.90
2022-09-04T01:06:31.490Z,15.80
2022-09-04T01:09:17.775Z,15.80
2022-09-04T01:11:53.426Z,15.70
2022-09-04T01:14:28.863Z,15.70
2022-09-04T01:17:05.956Z,15.60
2022-09-04T01:19:46.855Z,15.60
2022-09-04T01:22:35.881Z,15.70
2022-09-04T01:25:20.356Z,15.70
2022-09-04T01:27:55.119Z,15.60
2022-09-04T01:30:22.675Z,15.60
2022-09-04T01:33:04.557Z,15.60
2022-09-04T01:35:39.012Z,15.60
2022-09-04T01:38:14.350Z,15.60
2022-09-04T01:40:47.225Z,15.60
2022-09-04T01:43:18.000Z,15.60
2022-09-04T01:46:05.832Z,15.80
2022-09-04T01:48:41.489Z,15.50
2022-09-04T01:51:17.084Z,15.50
2022-09-04T01:53:51.207Z,15.50
2022-09-04T01:58:55.797Z,15.50
2022-09-04T02:01:31.305Z,15.50
2022-09-04T02:04:07.431Z,16.40
2022-09-04T02:06:43.977Z,15.40
2022-09-04T02:09:25.918Z,15.40
2022-09-04T02:12:02.849Z,15.30
2022-09-04T02:14:46.967Z,15.30
2022-09-04T02:17:19.284Z,15.20
2022-09-04T02:22:43.103Z,15.20
2022-09-04T02:25:20.531Z,15.20
2022-09-04T02:27:56.911Z,15.10
2022-09-04T02:30:24.396Z,15.20
2022-09-04T02:33:00.350Z,15.10
2022-09-04T02:35:34.521Z,15.10
2022-09-04T02:38:14.862Z,15.00
2022-09-04T02:40:49.459Z,15.00
2022-09-04T02:43:34.806Z,15.10
2022-09-04T02:46:07.192Z,15.00
2022-09-04T02:48:59.626Z,15.40
2022-09-04T02:51:41.079Z,15.10
2022-09-04T02:54:14.433Z,15.00
2022-09-04T02:56:52.086Z,15.00
2022-09-04T02:59:34.780Z,15.00
2022-09-04T03:02:04.988Z,15.10
2022-09-04T03:04:39.545Z,15.10
2022-09-04T03:07:13.302Z,15.00
2022-09-04T03:09:45.871Z,15.00
2022-09-04T03:12:26.199Z,15.00
2022-09-04T03:15:00.954Z,15.00
2022-09-04T03:17:36.363Z,14.90
2022-09-04T03:20:08.710Z,14.90
2022-09-04T03:22:43.686Z,14.90
2022-09-04T03:25:31.455Z,14.70
2022-09-04T03:30:27.287Z,14.80
2022-09-04T03:33:05.918Z,14.90
2022-09-04T03:35:42.298Z,14.70
2022-09-04T03:38:19.729Z,14.60
2022-09-04T03:40:56.928Z,14.60
2022-09-04T03:43:53.796Z,14.60
2022-09-04T03:46:33.726Z,14.60
2022-09-04T03:49:14.316Z,14.50
2022-09-04T03:51:53.140Z,14.50
2022-09-04T03:54:36.003Z,14.50
2022-09-04T03:57:20.555Z,14.40
2022-09-04T03:59:59.845Z,14.40
2022-09-04T04:02:38.281Z,14.30
2022-09-04T04:05:39.752Z,14.30
2022-09-04T04:08:36.927Z,14.00
2022-09-04T04:11:19.383Z,14.20
2022-09-04T04:14:11.944Z,14.20
2022-09-04T04:16:56.155Z,14.10
2022-09-04T04:19:43.945Z,14.10
2022-09-04T04:22:45.385Z,14.10
2022-09-04T04:25:32.539Z,14.20
2022-09-04T04:28:22.041Z,14.00
2022-09-04T04:30:51.697Z,14.00
2022-09-04T04:33:31.966Z,13.90
2022-09-04T04:36:09.340Z,13.90
2022-09-04T04:38:52.719Z,13.90
2022-09-04T04:41:30.179Z,13.90
2022-09-04T04:44:06.761Z,13.80
2022-09-04T04:46:53.720Z,13.80
2022-09-04T04:49:39.538Z,13.80
2022-09-04T04:52:22.945Z,13.80
2022-09-04T04:55:15.307Z,14.10
2022-09-04T04:57:52.639Z,13.90
2022-09-04T05:00:27.354Z,13.60
2022-09-04T05:03:04.004Z,13.90
2022-09-04T05:06:00.732Z,14.30
2022-09-04T05:08:37.103Z,14.10
2022-09-04T05:11:10.693Z,14.40
2022-09-04T05:13:51.558Z,14.70
2022-09-04T05:16:26.020Z,15.00
2022-09-04T05:18:59.237Z,15.40
2022-09-04T05:21:34.845Z,15.40
2022-09-04T05:24:05.197Z,15.50
2022-09-04T05:26:43.518Z,15.70
2022-09-04T05:29:17.000Z,15.80
2022-09-04T05:31:51.718Z,15.80
2022-09-04T05:34:33.401Z,15.70
2022-09-04T05:37:10.151Z,15.40
2022-09-04T05:39:53.104Z,15.40
2022-09-04T05:42:47.489Z,15.40
2022-09-04T05:45:24.571Z,15.30
2022-09-04T05:48:04.704Z,15.30
2022-09-04T05:50:57.365Z,15.40
2022-09-04T05:53:47.970Z,15.30
2022-09-04T05:56:38.934Z,15.40
2022-09-04T05:59:31.135Z,15.50
2022-09-04T06:02:15.547Z,15.30
2022-09-04T06:05:12.637Z,15.40
2022-09-04T06:07:50.640Z,15.60
2022-09-04T06:10:23.974Z,15.70
2022-09-04T06:13:13.205Z,15.70
2022-09-04T06:15:52.279Z,15.90
2022-09-04T06:18:36.214Z,15.70
2022-09-04T06:21:26.373Z,15.80
2022-09-04T06:24:13.963Z,15.80
2022-09-04T06:26:57.328Z,16.20
2022-09-04T06:29:41.829Z,16.40
2022-09-04T06:32:45.047Z,16.30
2022-09-04T06:38:03.835Z,16.00
2022-09-04T06:40:44.706Z,16.00
2022-09-04T06:43:29.449Z,15.90
2022-09-04T06:46:06.321Z,16.10
2022-09-04T06:48:47.044Z,16.20
2022-09-04T06:51:42.173Z,16.30
2022-09-04T06:54:18.673Z,16.50
2022-09-04T06:57:02.345Z,16.60
2022-09-04T07:00:02.266Z,16.80
2022-09-04T07:02:58.629Z,16.80
2022-09-04T07:05:31.545Z,16.80
2022-09-04T07:08:09.555Z,16.80
2022-09-04T07:10:41.572Z,16.90
2022-09-04T07:13:36.454Z,16.90
2022-09-04T07:16:34.731Z,16.80
2022-09-04T07:19:25.838Z,17.00
2022-09-04T07:22:10.887Z,17.20
2022-09-04T07:24:59.706Z,17.30
2022-09-04T07:27:39.954Z,17.50
2022-09-04T07:30:12.516Z,17.60
2022-09-04T07:32:45.369Z,17.70
2022-09-04T07:35:20.408Z,17.80
2022-09-04T07:37:57.800Z,18.10
2022-09-04T07:40:48.447Z,15.80
2022-09-04T07:43:23.207Z,18.70
2022-09-04T07:46:04.616Z,18.00
2022-09-04T07:48:57.501Z,18.60
2022-09-04T07:51:35.609Z,18.40
2022-09-04T07:54:23.793Z,18.60
2022-09-04T07:57:09.342Z,18.80
2022-09-04T08:00:00.493Z,19.00
2022-09-04T08:02:54.919Z,19.20
2022-09-04T08:05:29.761Z,19.60
2022-09-04T08:08:39.240Z,20.30
2022-09-04T08:11:29.407Z,20.50
2022-09-04T08:14:16.161Z,20.20
2022-09-04T08:16:55.307Z,20.30
2022-09-04T08:19:33.736Z,21.00
2022-09-04T08:22:06.015Z,22.70
2022-09-04T08:25:00.327Z,22.40
2022-09-04T08:27:51.224Z,23.50
2022-09-04T08:33:09.499Z,25.00
2022-09-04T08:35:47.308Z,25.90
2022-09-04T08:38:33.265Z,25.90
2022-09-04T08:41:26.874Z,25.40
2022-09-04T08:44:33.908Z,25.20
2022-09-04T08:47:34.888Z,25.30
2022-09-04T08:50:33.689Z,25.70
2022-09-04T08:53:43.783Z,26.30
2022-09-04T08:56:23.656Z,28.10
2022-09-04T08:59:28.840Z,28.40
2022-09-04T09:02:27.327Z,28.40
2022-09-04T09:05:23.087Z,26.80
2022-09-04T09:08:21.850Z,26.50
2022-09-04T09:11:29.246Z,26.60
2022-09-04T09:14:29.379Z,26.10
2022-09-04T09:17:11.880Z,26.60
2022-09-04T09:19:44.674Z,27.00
2022-09-04T09:22:36.204Z,27.60
2022-09-04T09:25:21.695Z,28.40
2022-09-04T09:28:35.845Z,27.70
2022-09-04T09:31:38.703Z,25.90
2022-09-04T09:34:24.552Z,25.60
2022-09-04T09:37:13.543Z,25.90
2022-09-04T09:40:24.324Z,25.80
2022-09-04T09:43:26.223Z,26.90
2022-09-04T09:46:27.069Z,26.30
2022-09-04T09:49:25.102Z,25.90
2022-09-04T09:52:17.586Z,25.90
2022-09-04T09:55:21.233Z,25.30
2022-09-04T09:58:23.728Z,25.50
2022-09-04T10:01:08.435Z,26.00
2022-09-04T10:04:10.047Z,26.50
2022-09-04T10:07:19.369Z,26.00
2022-09-04T10:10:17.509Z,25.90
2022-09-04T10:13:14.476Z,25.90
2022-09-04T10:18:58.516Z,26.10
2022-09-04T10:22:01.978Z,26.10
2022-09-04T10:25:05.482Z,26.50
2022-09-04T10:28:08.323Z,26.70
2022-09-04T10:30:59.226Z,26.40
2022-09-04T10:33:38.153Z,26.00
2022-09-04T10:36:18.118Z,25.60
2022-09-04T10:42:01.962Z,25.50
2022-09-04T10:44:50.140Z,26.50
2022-09-04T10:47:28.370Z,26.30
2022-09-04T10:50:20.302Z,26.50
2022-09-04T10:53:22.221Z,27.10
2022-09-04T10:56:05.251Z,27.90
2022-09-04T11:01:56.621Z,27.20
2022-09-04T11:04:54.741Z,26.70
2022-09-04T11:07:44.111Z,26.30
2022-09-04T11:10:30.743Z,26.30
2022-09-04T11:13:37.400Z,26.70
2022-09-04T11:16:38.447Z,26.10
2022-09-04T11:19:36.370Z,25.90
2022-09-04T11:22:35.647Z,25.80
2022-09-04T11:25:32.500Z,25.50
2022-09-04T11:28:19.745Z,24.70
2022-09-04T11:30:59.316Z,24.40
2022-09-04T11:34:06.586Z,24.20
2022-09-04T11:37:03.847Z,25.40
2022-09-04T11:40:08.585Z,25.80
2022-09-04T11:42:46.764Z,26.10
2022-09-04T11:45:41.279Z,27.00
2022-09-04T11:48:42.649Z,27.90
2022-09-04T11:51:39.792Z,28.40
2022-09-04T11:54:34.115Z,28.20
2022-09-04T11:57:19.505Z,27.10
2022-09-04T12:00:11.842Z,27.30
2022-09-04T12:03:13.869Z,26.90
2022-09-04T12:05:58.053Z,26.90
2022-09-04T12:08:47.210Z,27.50
2022-09-04T12:11:50.807Z,27.10
2022-09-04T12:14:42.182Z,27.00
2022-09-04T12:17:46.825Z,27.10
2022-09-04T12:20:54.543Z,27.70
2022-09-04T12:23:37.769Z,26.30
2022-09-04T12:26:29.895Z,25.20
2022-09-04T12:29:23.066Z,25.10
2022-09-04T12:32:25.321Z,24.90
2022-09-04T12:35:58.241Z,24.50
2022-09-04T12:43:42.338Z,24.30
2022-09-04T12:46:21.592Z,24.00
2022-09-04T12:49:01.653Z,23.80
2022-09-04T12:51:36.371Z,23.70
2022-09-04T12:54:20.283Z,23.70
2022-09-04T12:56:58.121Z,23.70
2022-09-04T12:59:46.648Z,23.70
2022-09-04T13:02:30.904Z,23.90
2022-09-04T13:05:06.473Z,23.80
2022-09-04T13:07:45.938Z,23.90
2022-09-04T13:10:23.943Z,23.90
2022-09-04T13:13:00.300Z,23.90
2022-09-04T13:15:40.395Z,23.90
2022-09-04T13:18:20.785Z,23.90
2022-09-04T13:21:01.328Z,23.90
2022-09-04T13:23:51.545Z,23.90
2022-09-04T13:26:30.302Z,23.90
2022-09-04T13:29:14.371Z,24.00
2022-09-04T13:31:58.793Z,24.00
2022-09-04T13:34:37.367Z,23.90
2022-09-04T13:37:11.371Z,23.90
2022-09-04T13:40:11.950Z,23.80
2022-09-04T13:43:13.697Z,23.70
2022-09-04T13:45:45.275Z,25.70
2022-09-04T13:48:15.254Z,23.70
2022-09-04T13:50:46.255Z,23.70
2022-09-04T13:53:19.128Z,23.70
2022-09-04T13:55:51.726Z,23.50
2022-09-04T13:58:20.799Z,23.60
2022-09-04T14:00:51.845Z,23.60
2022-09-04T14:03:32.109Z,23.60
2022-09-04T14:06:03.470Z,23.60
2022-09-04T14:11:16.582Z,23.50
2022-09-04T14:14:02.619Z,23.50
2022-09-04T14:16:33.407Z,23.40
2022-09-04T14:19:16.672Z,23.50
2022-09-04T14:22:05.332Z,23.60
2022-09-04T14:24:41.390Z,23.60
2022-09-04T14:27:13.854Z,23.50
2022-09-04T14:29:56.277Z,23.50
2022-09-04T14:32:31.570Z,23.50
2022-09-04T14:35:07.798Z,23.50
2022-09-04T14:38:01.646Z,23.60
2022-09-04T14:40:33.201Z,20.50
2022-09-04T14:43:08.568Z,23.50
2022-09-04T14:46:03.974Z,23.40
2022-09-04T14:48:36.493Z,23.20
2022-09-04T14:56:32.011Z,23.50
2022-09-04T14:59:09.754Z,23.40
2022-09-04T15:01:54.109Z,23.40
2022-09-04T15:04:24.660Z,23.40
2022-09-04T15:07:10.687Z,23.40
2022-09-04T15:09:40.794Z,23.40
2022-09-04T15:12:25.930Z,23.40
2022-09-04T15:15:03.494Z,23.50
2022-09-04T15:17:31.722Z,23.40
2022-09-04T15:20:07.103Z,23.40
2022-09-04T15:22:38.811Z,23.30
2022-09-04T15:25:09.001Z,23.50
2022-09-04T15:27:43.821Z,23.30
2022-09-04T15:30:19.234Z,23.70
2022-09-04T15:32:47.888Z,23.20
2022-09-04T15:35:22.310Z,23.20
2022-09-04T15:37:51.555Z,23.20
2022-09-04T15:40:28.254Z,23.20
2022-09-04T15:43:03.535Z,23.20
2022-09-04T15:45:40.279Z,23.20
2022-09-04T15:48:29.057Z,23.20
2022-09-04T15:51:19.114Z,23.10
2022-09-04T15:53:53.919Z,23.10
2022-09-04T15:56:34.652Z,23.10
2022-09-04T15:59:11.610Z,23.10
2022-09-04T16:01:47.098Z,23.00
2022-09-04T16:04:22.746Z,23.00
2022-09-04T16:06:57.080Z,23.00
2022-09-04T16:09:30.962Z,23.00
2022-09-04T16:12:04.624Z,23.00
2022-09-04T16:14:39.951Z,22.90
2022-09-04T16:17:16.326Z,22.90
2022-09-04T16:19:53.565Z,22.90
2022-09-04T16:22:30.128Z,22.80
2022-09-04T16:25:10.042Z,22.80
2022-09-04T16:27:46.749Z,22.80
2022-09-04T16:30:30.434Z,22.80
2022-09-04T16:32:57.759Z,22.70
2022-09-04T16:35:28.151Z,22.70
2022-09-04T16:38:03.199Z,22.70
2022-09-04T16:40:33.937Z,22.70
2022-09-04T16:43:11.405Z,22.70
2022-09-04T16:45:44.782Z,22.60
2022-09-04T16:48:34.119Z,22.50
2022-09-04T16:51:09.846Z,22.50
2022-09-04T16:54:04.640Z,22.50
2022-09-04T16:56:37.719Z,22.40
2022-09-04T16:59:24.920Z,22.50
2022-09-04T17:02:00.329Z,22.30
2022-09-04T17:04:39.625Z,22.30
2022-09-04T17:07:16.474Z,22.20
2022-09-04T17:09:58.046Z,22.20
2022-09-04T17:12:46.540Z,22.10
2022-09-04T17:15:25.331Z,22.10
2022-09-04T17:20:47.161Z,21.80
2022-09-04T17:29:02.864Z,21.90
2022-09-04T17:29:11.656Z,21.90
2022-09-04T17:31:53.587Z,21.80
2022-09-04T17:40:32.020Z,21.70
2022-09-04T17:40:50.009Z,21.60
2022-09-04T17:41:34.689Z,21.50
2022-09-04T17:43:27.347Z,21.40
2022-09-04T17:46:08.052Z,21.40
2022-09-04T17:53:41.204Z,21.30
2022-09-04T17:56:15.955Z,21.20
2022-09-04T18:01:21.917Z,21.20
2022-09-04T18:04:22.020Z,21.10
2022-09-04T18:06:57.466Z,21.00
2022-09-04T18:09:33.446Z,21.00
2022-09-04T18:12:10.331Z,20.90
2022-09-04T18:14:44.612Z,20.90
2022-09-04T18:17:20.445Z,20.90
2022-09-04T18:19:48.538Z,20.90
2022-09-04T18:22:31.979Z,21.00
2022-09-04T18:25:15.743Z,20.80
2022-09-04T18:28:11.812Z,20.70
2022-09-04T18:37:06.913Z,20.60
2022-09-04T18:37:21.504Z,20.50
2022-09-04T18:37:44.860Z,20.40
2022-09-04T18:40:08.963Z,20.40
2022-09-04T18:50:20.804Z,20.50
2022-09-04T18:50:25.174Z,20.50
2022-09-04T18:50:47.270Z,20.40
2022-09-04T18:51:29.813Z,20.40
2022-09-04T18:54:05.954Z,20.30
2022-09-04T18:56:41.304Z,20.20
2022-09-04T18:59:15.000Z,20.20
2022-09-04T19:01:44.944Z,20.20
2022-09-04T19:04:37.373Z,20.30
2022-09-04T19:07:09.596Z,20.10
2022-09-04T19:09:55.909Z,22.60
2022-09-04T19:12:35.712Z,20.00
2022-09-04T19:15:49.091Z,20.00
2022-09-04T19:21:14.879Z,20.00
2022-09-04T19:23:47.364Z,19.90
2022-09-04T19:26:27.297Z,19.90
2022-09-04T19:29:02.057Z,19.80
2022-09-04T19:31:34.975Z,19.80
2022-09-04T19:34:10.818Z,19.80
2022-09-04T19:36:44.734Z,19.80
2022-09-04T19:46:07.511Z,19.90
2022-09-04T19:46:07.544Z,19.70
2022-09-04T19:46:15.612Z,19.60
2022-09-04T19:48:19.950Z,19.50
2022-09-04T19:53:22.726Z,19.50
2022-09-04T19:53:51.883Z,19.70
2022-09-04T19:56:26.667Z,19.40
2022-09-04T19:58:58.898Z,19.40
2022-09-04T20:07:18.047Z,19.20
2022-09-04T20:09:49.528Z,19.10
2022-09-04T20:12:34.499Z,19.20
2022-09-04T20:15:10.986Z,19.10
2022-09-04T20:17:59.044Z,19.10
2022-09-04T20:20:38.511Z,19.10
2022-09-04T20:23:34.218Z,19.00
2022-09-04T20:28:51.602Z,18.90
2022-09-04T20:31:44.391Z,18.80
2022-09-04T20:34:29.408Z,18.80
2022-09-04T20:37:18.661Z,18.70
2022-09-04T20:39:52.720Z,18.70
2022-09-04T20:42:26.912Z,18.70
2022-09-04T20:48:22.581Z,18.60
2022-09-04T20:52:42.392Z,18.60
2022-09-04T20:52:58.852Z,18.60
2022-09-04T20:53:51.686Z,18.50
2022-09-04T20:57:29.752Z,18.50
2022-09-04T21:03:14.434Z,18.40
2022-09-04T21:03:22.930Z,18.40
2022-09-04T21:05:32.664Z,18.30
2022-09-04T21:08:07.670Z,18.30
2022-09-04T21:13:14.212Z,18.20
2022-09-04T21:15:56.972Z,18.20
2022-09-04T21:19:27.565Z,18.10
2022-09-04T21:21:54.654Z,18.10
2022-09-04T21:24:51.503Z,18.10
2022-09-04T21:27:54.289Z,18.20
2022-09-04T21:30:52.592Z,18.00
2022-09-04T21:33:30.589Z,18.00
2022-09-04T21:36:25.468Z,18.00
2022-09-04T21:39:30.449Z,17.70
2022-09-04T21:42:16.761Z,17.90
2022-09-04T21:45:13.354Z,17.90
2022-09-04T21:48:05.584Z,17.90
2022-09-04T21:50:58.881Z,17.80
2022-09-04T21:54:09.952Z,18.10
2022-09-04T22:02:29.605Z,17.80
2022-09-04T22:02:46.276Z,17.70
2022-09-04T22:03:25.585Z,17.60
2022-09-04T22:06:09.780Z,17.60
2022-09-04T22:13:29.758Z,17.60
2022-09-04T22:13:45.998Z,17.90
2022-09-04T22:14:48.309Z,17.50
2022-09-04T22:17:29.856Z,17.50
2022-09-04T22:20:20.707Z,17.50
2022-09-04T22:23:23.168Z,17.80
2022-09-04T22:26:23.655Z,17.50
2022-09-04T22:29:06.685Z,17.40
2022-09-04T22:32:27.349Z,17.40
2022-09-04T22:35:35.572Z,17.30
2022-09-04T22:38:45.370Z,17.30
2022-09-04T22:41:39.305Z,17.30
2022-09-04T22:44:20.626Z,17.20
2022-09-04T22:47:25.016Z,17.20
2022-09-04T22:50:16.923Z,17.20
2022-09-04T22:52:58.961Z,17.10
2022-09-04T22:56:09.835Z,17.80
2022-09-04T22:58:47.553Z,17.10
2022-09-04T23:01:39.049Z,17.10
2022-09-04T23:04:19.629Z,17.00
2022-09-04T23:09:28.277Z,17.00
2022-09-04T23:13:51.607Z,17.00
2022-09-04T23:13:59.884Z,17.00
2022-09-04T23:16:51.267Z,17.00
2022-09-04T23:26:33.036Z,17.00
2022-09-04T23:26:46.045Z,16.90
2022-09-04T23:26:58.679Z,16.90
2022-09-04T23:29:11.961Z,16.90
2022-09-04T23:32:09.488Z,16.90
2022-09-04T23:35:13.415Z,16.80
2022-09-04T23:38:00.010Z,16.90
2022-09-04T23:40:39.360Z,16.80
2022-09-04T23:43:35.034Z,16.90
2022-09-04T23:46:31.597Z,16.80
2022-09-04T23:49:37.026Z,16.60
2022-09-04T23:52:15.027Z,16.70
2022-09-04T23:55:17.080Z,16.40
2022-09-04T23:57:50.316Z,16.70
